Time;durP1;ratioP1;P1;durP2;ratioP2;P2;SDS_P1;SDS_P2;PMS_P1;PMS_P2;Temp;Humidity;BMP_temperature;BMP_pressure;BME280_temperature;BME280_humidity;BME280_pressure;Samples;Min_cycle;Max_cycle;Signal;HPM_P1;HPM_P2
2022/10/01 00:01:42;;;;;;;7.47;5.93;;;;;;;8.06;94.63;98129.56;4118030;28;20285;-49
2022/10/01 00:03:45;;;;;;;7.07;6.32;;;;;;;7.99;94.56;98128.06;4116815;28;20234;-49
2022/10/01 00:05:58;;;;;;;7.25;6.43;;;;;;;8.02;95.21;98128.38;4118378;28;20222;-48
2022/10/01 00:07:59;;;;;;;5.10;3.95;;;;;;;8.08;98.25;98132.06;4132674;28;20223;-48
2022/10/01 00:10:01;;;;;;;4.13;3.72;;;;;;;8.12;98.67;98133.22;4119774;28;20244;-49
2022/10/01 00:12:03;;;;;;;4.15;3.83;;;;;;;8.14;99.96;98134.63;4123608;28;20281;-48
2022/10/01 00:14:05;;;;;;;3.60;3.28;;;;;;;8.19;99.61;98139.34;4123819;28;20251;-49
2022/10/01 00:16:08;;;;;;;4.57;3.72;;;;;;;8.29;99.87;98139.56;4121936;28;20217;-48
2022/10/01 00:18:10;;;;;;;4.47;4.13;;;;;;;8.33;99.34;98129.81;4117189;28;20212;-48
2022/10/01 00:20:12;;;;;;;3.17;2.90;;;;;;;8.33;98.99;98124.38;4118768;28;20293;-47
2022/10/01 00:22:15;;;;;;;3.63;3.33;;;;;;;8.46;98.74;98129.50;4122065;28;20220;-48
2022/10/01 00:24:17;;;;;;;3.58;3.28;;;;;;;8.43;98.28;98119.09;4113949;28;20727;-48
2022/10/01 00:26:21;;;;;;;3.65;3.35;;;;;;;8.55;97.89;98117.13;4122768;28;20692;-49
2022/10/01 00:28:23;;;;;;;4.25;3.45;;;;;;;8.59;97.96;98105.50;4121756;28;20293;-48
2022/10/01 00:30:25;;;;;;;3.97;3.58;;;;;;;8.58;98.40;98100.28;4123665;28;20249;-48
2022/10/01 00:32:27;;;;;;;3.15;2.75;;;;;;;8.55;99.29;98104.31;4123832;28;20272;-48
2022/10/01 00:34:28;;;;;;;2.65;2.45;;;;;;;8.55;99.56;98108.97;4134862;28;20207;-47
2022/10/01 00:36:30;;;;;;;2.90;2.70;;;;;;;8.59;99.69;98112.81;4119564;28;20201;-48
2022/10/01 00:38:33;;;;;;;9.02;3.40;;;;;;;8.64;100.00;98104.75;4119680;28;20221;-49
2022/10/01 00:40:35;;;;;;;3.30;3.10;;;;;;;8.65;100.00;98101.78;4126236;28;20208;-48
2022/10/01 00:42:36;;;;;;;3.60;3.30;;;;;;;8.75;99.72;98103.84;4120696;28;20436;-49
2022/10/01 00:44:38;;;;;;;3.25;3.05;;;;;;;8.74;99.71;98099.47;4113257;28;20207;-49
2022/10/01 00:46:42;;;;;;;3.30;2.75;;;;;;;8.81;100.00;98105.56;4128109;28;20208;-49
2022/10/01 00:48:56;;;;;;;3.60;3.30;;;;;;;8.83;99.33;98098.78;4123312;28;20293;-48
2022/10/01 00:50:58;;;;;;;3.78;2.33;;;;;;;8.93;99.43;98103.56;4121844;28;20257;-48
2022/10/01 00:53:07;;;;;;;4.53;2.75;;;;;;;8.93;99.37;98104.41;4108931;28;20226;-48
2022/10/01 00:55:19;;;;;;;3.40;2.90;;;;;;;8.99;99.02;98097.09;4120018;28;20228;-48
2022/10/01 00:57:23;;;;;;;3.38;2.95;;;;;;;9.03;99.07;98101.00;4107275;28;20211;-49
2022/10/01 00:59:26;;;;;;;3.70;3.08;;;;;;;9.08;99.08;98095.63;4116939;28;20408;-48
2022/10/01 01:01:28;;;;;;;2.83;2.40;;;;;;;9.10;98.79;98094.28;4104002;28;20337;-48
2022/10/01 01:03:30;;;;;;;4.40;3.10;;;;;;;9.09;98.60;98097.28;4123321;28;20233;-47
2022/10/01 01:05:31;;;;;;;4.03;3.63;;;;;;;9.07;98.71;98088.47;4119054;28;20230;-47
2022/10/01 01:07:34;;;;;;;4.82;4.43;;;;;;;9.09;99.41;98080.91;4136937;28;21083;-47
2022/10/01 01:09:40;;;;;;;3.28;3.08;;;;;;;9.08;98.83;98074.59;4119374;28;20210;-47
2022/10/01 01:11:57;;;;;;;4.22;2.85;;;;;;;9.09;98.03;98075.44;4121976;28;20211;-47
2022/10/01 01:14:18;;;;;;;4.47;4.05;;;;;;;9.05;97.91;98074.28;4120446;28;20236;-48
2022/10/01 01:16:32;;;;;;;3.40;2.97;;;;;;;9.14;98.45;98075.50;4118855;28;20202;-47
2022/10/01 01:18:41;;;;;;;2.53;2.33;;;;;;;9.12;98.69;98085.84;4125226;28;20287;-47
2022/10/01 01:20:50;;;;;;;3.10;2.75;;;;;;;9.17;97.97;98075.00;4121913;28;20198;-47
2022/10/01 01:23:13;;;;;;;3.90;2.63;;;;;;;9.16;97.93;98074.16;4125834;28;20229;-48
2022/10/01 01:25:27;;;;;;;3.45;2.90;;;;;;;9.09;98.87;98080.91;4121007;28;20202;-48
2022/10/01 01:27:37;;;;;;;3.63;3.33;;;;;;;9.13;98.33;98077.41;4121836;28;20680;-49
2022/10/01 01:30:04;;;;;;;4.53;4.10;;;;;;;9.17;97.55;98061.34;4106253;28;20199;-49
2022/10/01 01:32:14;;;;;;;3.97;3.47;;;;;;;9.17;98.23;98050.44;4123951;28;20604;-48
2022/10/01 01:34:23;;;;;;;5.20;4.72;;;;;;;9.20;98.33;98060.84;4122217;28;20201;-48
2022/10/01 01:36:31;;;;;;;5.63;3.55;;;;;;;9.34;96.91;98051.22;4120558;28;20260;-48
2022/10/01 01:38:37;;;;;;;4.60;4.20;;;;;;;9.42;96.56;98053.50;4108962;28;20208;-50
2022/10/01 01:40:41;;;;;;;3.38;3.08;;;;;;;9.47;95.94;98053.53;4127340;28;20601;-49
2022/10/01 01:42:43;;;;;;;3.17;2.88;;;;;;;9.40;96.42;98061.09;4123418;28;20228;-48
2022/10/01 01:44:46;;;;;;;4.15;2.80;;;;;;;9.40;96.55;98056.47;4123147;28;20774;-50
2022/10/01 01:46:48;;;;;;;4.68;4.28;;;;;;;9.41;96.73;98062.78;4118468;28;20261;-48
2022/10/01 01:48:52;;;;;;;4.05;3.75;;;;;;;9.42;97.01;98056.22;4123354;28;20205;-48
2022/10/01 01:51:01;;;;;;;3.38;3.08;;;;;;;9.48;96.43;98047.03;4122348;28;20576;-49
2022/10/01 01:53:03;;;;;;;8.38;2.63;;;;;;;9.54;95.59;98046.00;4121406;28;20226;-48
2022/10/01 01:55:07;;;;;;;3.38;2.97;;;;;;;9.53;95.87;98038.88;4120143;28;20809;-48
2022/10/01 01:57:12;;;;;;;8.90;5.25;;;;;;;9.49;96.22;98032.28;4119883;28;20211;-48
2022/10/01 01:59:17;;;;;;;4.65;3.88;;;;;;;9.63;96.14;98033.53;4109294;28;20214;-48
2022/10/01 02:01:38;;;;;;;4.80;4.13;;;;;;;9.58;95.55;98017.09;4122566;28;20285;-48
2022/10/01 02:03:40;;;;;;;5.38;4.88;;;;;;;9.59;95.97;98016.00;4124390;28;20222;-47
2022/10/01 02:05:52;;;;;;;5.43;4.30;;;;;;;9.65;94.86;98014.97;4120877;28;20225;-47
2022/10/01 02:07:58;;;;;;;4.95;4.45;;;;;;;9.72;94.74;98012.88;4120868;28;20217;-47
2022/10/01 02:10:12;;;;;;;3.88;3.58;;;;;;;9.71;94.96;98012.06;4108367;28;20250;-47
2022/10/01 02:12:32;;;;;;;9.02;6.07;;;;;;;9.77;94.36;98015.66;4125286;28;20226;-47
2022/10/01 02:15:03;;;;;;;6.95;6.03;;;;;;;9.84;94.06;98019.03;4119566;28;20214;-47
2022/10/01 02:17:15;;;;;;;3.38;2.53;;;;;;;9.91;94.04;98014.16;4112380;28;20216;-47
2022/10/01 02:19:32;;;;;;;3.10;2.90;;;;;;;9.95;93.40;98009.84;4117090;28;20210;-47
2022/10/01 02:21:39;;;;;;;5.75;4.53;;;;;;;10.02;92.77;97988.59;4118712;28;20699;-47
2022/10/01 02:24:23;;;;;;;5.43;4.22;;;;;;;10.02;92.67;97999.53;4120651;28;20226;-46
2022/10/01 02:26:26;;;;;;;2.95;2.60;;;;;;;10.08;92.65;97998.53;4112553;28;20210;-46
2022/10/01 02:28:30;;;;;;;8.13;4.55;;;;;;;10.06;93.03;97995.22;4121858;28;20660;-46
2022/10/01 02:30:34;;;;;;;5.55;3.90;;;;;;;10.09;92.91;98000.19;4121299;28;20568;-45
2022/10/01 02:32:38;;;;;;;6.47;3.85;;;;;;;10.08;93.08;97993.88;4121560;28;20309;-46
2022/10/01 02:34:42;;;;;;;3.22;2.65;;;;;;;10.15;92.18;97988.22;4117097;28;20217;-46
2022/10/01 02:36:44;;;;;;;6.85;3.53;;;;;;;10.18;92.26;97998.59;4103911;28;22185;-46
2022/10/01 02:38:49;;;;;;;6.05;3.58;;;;;;;10.20;92.31;97996.44;4121616;28;20305;-46
2022/10/01 02:40:54;;;;;;;5.32;3.65;;;;;;;10.16;92.47;97984.38;4119500;28;20198;-46
2022/10/01 02:43:01;;;;;;;7.57;4.47;;;;;;;10.23;92.25;97983.09;4120028;28;20221;-46
2022/10/01 02:45:03;;;;;;;5.65;3.78;;;;;;;10.22;91.95;97975.13;4116762;28;20205;-46
2022/10/01 02:47:16;;;;;;;3.00;2.17;;;;;;;10.25;91.59;97977.34;4119180;28;20212;-47
2022/10/01 02:49:19;;;;;;;5.20;2.72;;;;;;;10.38;91.02;97971.44;4120000;28;20583;-48
2022/10/01 02:51:42;;;;;;;2.75;2.38;;;;;;;10.36;91.91;97974.41;4121301;28;20237;-47
2022/10/01 02:53:47;;;;;;;3.50;3.08;;;;;;;10.36;91.57;97979.09;4133689;28;20226;-47
2022/10/01 02:55:50;;;;;;;5.07;3.83;;;;;;;10.34;91.73;97975.78;4102006;28;20233;-47
2022/10/01 02:57:52;;;;;;;3.17;2.53;;;;;;;10.41;91.68;97976.38;4125542;28;20321;-48
2022/10/01 02:59:56;;;;;;;7.65;2.53;;;;;;;10.43;91.68;97960.53;4125087;28;20205;-48
2022/10/01 03:01:58;;;;;;;2.22;1.88;;;;;;;10.42;91.54;97959.69;4121592;28;20361;-47
2022/10/01 03:04:01;;;;;;;2.47;2.28;;;;;;;10.33;92.26;97954.97;4120559;28;20222;-48
2022/10/01 03:06:02;;;;;;;2.13;1.90;;;;;;;10.37;92.21;97959.69;4120273;28;20206;-49
2022/10/01 03:08:04;;;;;;;3.10;2.38;;;;;;;10.39;91.79;97956.66;4122496;28;20308;-48
2022/10/01 03:10:07;;;;;;;3.65;2.72;;;;;;;10.37;92.47;97956.13;4117188;28;20214;-48
2022/10/01 03:12:09;;;;;;;1.70;1.60;;;;;;;10.44;92.43;97964.91;4117401;28;20223;-48
2022/10/01 03:14:11;;;;;;;2.72;1.90;;;;;;;10.41;92.37;97960.78;4119325;28;20210;-47
2022/10/01 03:16:13;;;;;;;2.10;1.95;;;;;;;10.41;92.48;97973.66;4103867;28;21007;-48
2022/10/01 03:18:14;;;;;;;1.75;1.65;;;;;;;10.45;93.17;97974.75;4133698;28;20206;-48
2022/10/01 03:20:16;;;;;;;1.63;1.52;;;;;;;10.40;93.37;97969.25;4120017;28;20245;-47
2022/10/01 03:22:21;;;;;;;12.55;3.00;;;;;;;10.35;94.21;97983.72;4119100;28;20554;-48
2022/10/01 03:24:23;;;;;;;5.20;3.58;;;;;;;10.30;94.87;97970.03;4121941;28;20751;-47
2022/10/01 03:26:25;;;;;;;9.35;5.70;;;;;;;10.29;95.90;97967.53;4134797;28;20202;-47
2022/10/01 03:28:26;;;;;;;3.08;2.72;;;;;;;10.26;96.30;97973.50;4117208;28;20289;-48
2022/10/01 03:30:29;;;;;;;7.45;4.72;;;;;;;10.17;97.52;97969.63;4124086;28;20346;-47
2022/10/01 03:32:31;;;;;;;6.38;4.40;;;;;;;10.14;98.08;97972.88;4117666;28;20924;-48
2022/10/01 03:34:33;;;;;;;14.88;7.50;;;;;;;10.03;99.23;97966.47;4119322;28;20559;-48
2022/10/01 03:36:34;;;;;;;8.88;6.80;;;;;;;10.01;100.00;97965.09;4119540;28;20571;-49
2022/10/01 03:38:36;;;;;;;4.80;4.30;;;;;;;10.08;100.00;97949.31;4125661;28;20301;-48
2022/10/01 03:40:37;;;;;;;4.55;4.25;;;;;;;10.02;100.00;97953.06;4117882;28;20211;-50
2022/10/01 03:42:39;;;;;;;2.45;2.28;;;;;;;10.01;100.00;97941.28;4116022;28;20288;-50
2022/10/01 03:44:41;;;;;;;5.78;2.70;;;;;;;9.88;100.00;97938.19;4117578;28;20604;-49
2022/10/01 03:46:43;;;;;;;2.90;2.70;;;;;;;9.86;100.00;97940.34;4131418;28;20221;-51
2022/10/01 03:48:45;;;;;;;4.18;2.75;;;;;;;9.89;100.00;97934.38;4118017;28;20218;-50
2022/10/01 03:50:56;;;;;;;2.30;2.00;;;;;;;9.87;100.00;97939.28;4119638;28;20207;-50
2022/10/01 03:52:58;;;;;;;2.40;2.30;;;;;;;9.88;100.00;97935.47;4122912;28;20252;-49
2022/10/01 03:55:01;;;;;;;2.10;2.00;;;;;;;9.85;100.00;97934.06;4123237;28;20205;-48
2022/10/01 03:57:02;;;;;;;2.83;2.63;;;;;;;9.87;100.00;97936.53;4118575;28;20288;-48
2022/10/01 03:59:04;;;;;;;2.75;2.55;;;;;;;9.81;100.00;97929.38;4117303;28;20257;-47
2022/10/01 04:01:06;;;;;;;2.70;2.50;;;;;;;9.87;100.00;97931.09;4117989;28;20217;-47
2022/10/01 04:03:07;;;;;;;2.35;2.25;;;;;;;9.84;100.00;97937.88;4122847;28;20598;-47
2022/10/01 04:05:09;;;;;;;2.10;2.00;;;;;;;9.82;100.00;97928.28;4106268;28;20226;-49
2022/10/01 04:07:11;;;;;;;2.33;2.13;;;;;;;9.91;100.00;97934.91;4116604;28;20210;-48
2022/10/01 04:09:12;;;;;;;2.50;2.30;;;;;;;9.88;100.00;97935.47;4117636;28;20260;-48
2022/10/01 04:11:14;;;;;;;2.88;2.65;;;;;;;9.81;100.00;97932.13;4119256;28;20316;-47
2022/10/01 04:13:16;;;;;;;5.68;2.90;;;;;;;9.84;100.00;97929.69;4126948;28;20349;-47
2022/10/01 04:15:18;;;;;;;3.50;3.20;;;;;;;9.83;100.00;97924.47;4119887;28;20357;-47
2022/10/01 04:17:19;;;;;;;3.15;2.92;;;;;;;9.81;100.00;97923.91;4117360;28;20210;-48
2022/10/01 04:19:21;;;;;;;3.08;2.88;;;;;;;9.81;100.00;97919.25;4121145;28;20290;-47
2022/10/01 04:21:23;;;;;;;2.70;2.40;;;;;;;9.76;100.00;97918.41;4118345;28;20337;-47
2022/10/01 04:23:25;;;;;;;3.10;2.90;;;;;;;9.80;100.00;97917.63;4120671;28;20255;-47
2022/10/01 04:25:27;;;;;;;3.83;3.35;;;;;;;9.76;100.00;97912.94;4123402;28;20206;-49
2022/10/01 04:27:29;;;;;;;3.28;3.08;;;;;;;9.76;100.00;97902.00;4115401;28;20293;-48
2022/10/01 04:29:32;;;;;;;3.67;3.38;;;;;;;9.79;100.00;97906.94;4118670;28;20606;-47
2022/10/01 04:31:43;;;;;;;3.03;2.78;;;;;;;9.78;100.00;97910.75;4118593;28;20301;-47
2022/10/01 04:33:45;;;;;;;4.88;2.53;;;;;;;9.78;100.00;97897.09;4117213;28;20240;-47
2022/10/01 04:35:47;;;;;;;3.33;3.03;;;;;;;9.81;100.00;97905.59;4121811;28;20212;-48
2022/10/01 04:38:00;;;;;;;3.95;3.63;;;;;;;9.82;100.00;97906.44;4119467;28;20214;-47
2022/10/01 04:40:02;;;;;;;3.63;3.33;;;;;;;9.82;100.00;97906.44;4123364;28;20663;-48
2022/10/01 04:42:03;;;;;;;3.47;3.17;;;;;;;9.84;100.00;97898.78;4115847;28;20206;-47
2022/10/01 04:44:05;;;;;;;3.40;2.95;;;;;;;9.82;100.00;97900.97;4120526;28;20225;-48
2022/10/01 04:46:07;;;;;;;4.05;3.65;;;;;;;9.86;100.00;97888.41;4117940;28;20198;-48
2022/10/01 04:48:08;;;;;;;2.75;2.55;;;;;;;9.84;100.00;97896.06;4120091;28;20213;-47
2022/10/01 04:50:10;;;;;;;3.33;3.03;;;;;;;9.84;100.00;97893.31;4116916;28;20306;-46
2022/10/01 04:52:12;;;;;;;2.92;2.72;;;;;;;9.84;100.00;97877.78;4118309;28;20262;-47
2022/10/01 04:54:13;;;;;;;3.65;3.30;;;;;;;9.81;100.00;97882.94;4114041;28;20211;-47
2022/10/01 04:56:15;;;;;;;3.20;3.00;;;;;;;9.86;100.00;97888.41;4125146;28;20206;-47
2022/10/01 04:58:17;;;;;;;3.05;2.83;;;;;;;9.86;100.00;97882.94;4124117;28;20206;-47
2022/10/01 05:00:23;;;;;;;3.47;3.22;;;;;;;9.86;100.00;97882.94;4117564;28;21975;-47
2022/10/01 05:02:24;;;;;;;3.53;3.22;;;;;;;9.88;100.00;97872.59;4119660;28;20313;-48
2022/10/01 05:04:26;;;;;;;3.08;2.85;;;;;;;9.88;100.00;97873.41;4122529;28;20209;-50
2022/10/01 05:06:28;;;;;;;2.70;2.50;;;;;;;9.80;100.00;97870.31;4118123;28;20253;-50
2022/10/01 05:08:30;;;;;;;3.58;3.25;;;;;;;9.85;100.00;97867.66;4104689;28;20213;-48
2022/10/01 05:10:31;;;;;;;3.75;3.45;;;;;;;9.88;100.00;97864.41;4106963;28;20281;-47
2022/10/01 05:12:33;;;;;;;3.00;2.70;;;;;;;9.89;100.00;97868.78;4123577;28;20233;-47
2022/10/01 05:14:35;;;;;;;3.22;2.92;;;;;;;9.86;100.00;97885.69;4119659;28;20718;-49
2022/10/01 05:16:37;;;;;;;3.53;2.78;;;;;;;9.86;100.00;97875.59;4119916;28;20252;-48
2022/10/01 05:18:39;;;;;;;3.80;2.53;;;;;;;9.87;100.00;97881.91;4115533;28;20269;-47
2022/10/01 05:20:41;;;;;;;2.97;2.78;;;;;;;9.93;100.00;97883.56;4100489;28;20214;-49
2022/10/01 05:22:44;;;;;;;3.42;3.22;;;;;;;9.88;100.00;97883.53;4120130;28;20853;-47
2022/10/01 05:24:46;;;;;;;2.83;2.63;;;;;;;9.87;100.00;97892.81;4122076;28;20285;-48
2022/10/01 05:26:48;;;;;;;3.30;2.78;;;;;;;9.89;100.00;97891.44;4102513;28;20298;-47
2022/10/01 05:28:50;;;;;;;3.13;2.80;;;;;;;9.84;100.00;97888.69;4117717;28;20213;-47
2022/10/01 05:30:51;;;;;;;2.60;2.45;;;;;;;9.82;100.00;97890.03;4123771;28;20214;-47
2022/10/01 05:32:55;;;;;;;2.72;2.53;;;;;;;9.84;100.00;97882.41;4123498;28;20428;-49
2022/10/01 05:34:57;;;;;;;3.30;3.10;;;;;;;9.88;100.00;97878.06;4125179;28;20229;-47
2022/10/01 05:36:59;;;;;;;3.33;3.05;;;;;;;9.82;100.00;97882.66;4120762;28;20210;-48
2022/10/01 05:39:01;;;;;;;4.88;2.58;;;;;;;9.81;100.00;97883.75;4110088;28;20203;-47
2022/10/01 05:41:03;;;;;;;3.38;2.92;;;;;;;9.81;100.00;97880.19;4118784;28;20206;-50
2022/10/01 05:43:05;;;;;;;3.60;2.85;;;;;;;9.82;100.00;97884.56;4120533;28;20276;-49
2022/10/01 05:45:08;;;;;;;2.88;2.67;;;;;;;9.83;100.00;97891.69;4119886;28;20297;-49
2022/10/01 05:47:12;;;;;;;3.20;3.00;;;;;;;9.82;100.00;97890.84;4116219;28;20206;-48
2022/10/01 05:49:16;;;;;;;2.70;2.60;;;;;;;9.81;100.00;97900.13;4118810;28;20754;-50
2022/10/01 05:51:18;;;;;;;3.03;2.40;;;;;;;9.81;100.00;97893.88;4128114;28;20715;-49
2022/10/01 05:53:21;;;;;;;2.88;2.67;;;;;;;9.78;100.00;97895.19;4111644;28;20226;-50
2022/10/01 05:55:23;;;;;;;3.42;2.70;;;;;;;9.84;100.00;97909.72;4133209;28;20241;-48
2022/10/01 05:57:24;;;;;;;3.90;3.60;;;;;;;9.83;100.00;97891.69;4120502;28;20210;-48
2022/10/01 05:59:26;;;;;;;4.05;3.65;;;;;;;9.88;100.00;97899.94;4119692;28;20636;-48
2022/10/01 06:01:32;;;;;;;4.15;3.80;;;;;;;9.82;100.00;97895.50;4122218;28;20669;-48
2022/10/01 06:03:34;;;;;;;7.03;5.40;;;;;;;9.82;100.00;97900.97;4121313;28;21229;-49
2022/10/01 06:05:36;;;;;;;3.67;3.35;;;;;;;9.81;100.00;97900.13;4123663;28;20613;-48
2022/10/01 06:07:38;;;;;;;4.55;3.10;;;;;;;9.81;100.00;97883.75;4121257;28;20206;-49
2022/10/01 06:09:40;;;;;;;3.53;3.20;;;;;;;9.81;100.00;97882.94;4114451;28;20374;-46
2022/10/01 06:11:41;;;;;;;2.88;2.55;;;;;;;9.81;100.00;97882.94;4122258;28;20248;-46
2022/10/01 06:13:44;;;;;;;3.90;3.60;;;;;;;9.75;100.00;97894.91;4119746;28;20248;-46
2022/10/01 06:15:46;;;;;;;4.55;3.90;;;;;;;9.81;100.00;97880.19;4122105;28;20202;-47
2022/10/01 06:17:47;;;;;;;4.30;3.35;;;;;;;9.76;100.00;97880.16;4124062;28;20206;-47
2022/10/01 06:19:50;;;;;;;3.05;2.85;;;;;;;9.80;100.00;97864.88;4121748;28;20202;-46
2022/10/01 06:21:52;;;;;;;4.22;3.92;;;;;;;9.83;100.00;97880.75;4119628;28;20293;-47
2022/10/01 06:23:56;;;;;;;5.07;4.70;;;;;;;9.77;100.00;97882.63;4125074;28;20332;-48
2022/10/01 06:25:59;;;;;;;4.78;4.38;;;;;;;9.81;100.00;97888.41;4127349;28;20572;-46
2022/10/01 06:28:02;;;;;;;5.82;4.63;;;;;;;9.82;100.00;97879.09;4120471;28;20198;-47
2022/10/01 06:30:04;;;;;;;4.70;4.30;;;;;;;9.86;100.00;97882.94;4122605;28;20254;-48
2022/10/01 06:32:07;;;;;;;4.75;4.35;;;;;;;9.81;100.00;97882.94;4127321;28;20238;-46
2022/10/01 06:34:09;;;;;;;3.47;3.17;;;;;;;9.87;100.00;97892.81;4112427;28;20266;-47
2022/10/01 06:36:11;;;;;;;4.03;3.67;;;;;;;9.80;100.00;97903.13;4121476;28;20561;-47
2022/10/01 06:38:13;;;;;;;3.78;3.40;;;;;;;9.83;100.00;97906.16;4126628;28;20249;-47
2022/10/01 06:40:14;;;;;;;3.65;2.92;;;;;;;9.88;100.00;97889.00;4121484;28;20285;-47
2022/10/01 06:42:16;;;;;;;4.95;4.43;;;;;;;9.87;100.00;97898.28;4120739;28;20218;-48
2022/10/01 06:44:19;;;;;;;6.38;3.88;;;;;;;9.87;100.00;97892.81;4119374;28;20210;-48
2022/10/01 06:46:20;;;;;;;5.68;4.55;;;;;;;9.85;100.00;97904.00;4122145;28;20211;-47
2022/10/01 06:48:22;;;;;;;4.82;4.43;;;;;;;9.85;100.00;97911.38;4105732;28;20211;-47
2022/10/01 06:50:24;;;;;;;5.85;5.30;;;;;;;9.85;100.00;97909.47;4124163;28;20233;-47
2022/10/01 06:54:46;;;;;;;2.85;2.65;;;;;;;9.86;100.00;97869.28;4116609;28;20221;-47
2022/10/01 06:56:48;;;;;;;2.17;2.08;;;;;;;9.80;100.00;97854.78;4120556;28;20214;-47
2022/10/01 06:58:49;;;;;;;1.90;1.80;;;;;;;9.85;100.00;97856.72;4120898;28;20217;-47
2022/10/01 07:00:57;;;;;;;2.15;1.98;;;;;;;9.90;100.00;97848.56;4119922;28;20221;-47
2022/10/01 07:03:00;;;;;;;1.95;1.85;;;;;;;9.94;100.00;97841.50;4118944;28;20312;-47
2022/10/01 07:05:02;;;;;;;2.10;1.77;;;;;;;9.99;100.00;97853.28;4117231;28;20304;-47
2022/10/01 07:07:04;;;;;;;1.23;1.23;;;;;;;10.02;100.00;97846.47;4126291;28;20289;-46
2022/10/01 07:09:05;;;;;;;1.73;1.63;;;;;;;9.95;100.00;97841.22;4121033;28;20210;-47
2022/10/01 07:11:07;;;;;;;1.80;1.70;;;;;;;9.96;100.00;97842.06;4122645;28;20202;-47
2022/10/01 07:13:15;;;;;;;1.58;1.48;;;;;;;9.94;100.00;97855.97;4120012;28;20726;-48
2022/10/01 07:15:19;;;;;;;2.00;1.80;;;;;;;9.96;100.00;97881.13;4119208;28;20283;-47
2022/10/01 07:17:21;;;;;;;1.73;1.63;;;;;;;10.02;100.00;97873.81;4132757;28;20205;-49
2022/10/01 07:19:22;;;;;;;1.88;1.77;;;;;;;9.98;100.00;97878.97;4117004;28;20220;-49
2022/10/01 07:21:24;;;;;;;1.83;1.73;;;;;;;10.01;100.00;97878.44;4119913;28;20341;-47
2022/10/01 07:23:26;;;;;;;2.08;1.65;;;;;;;10.10;100.00;97882.38;4121985;28;20225;-47
2022/10/01 07:25:28;;;;;;;1.30;1.20;;;;;;;10.10;100.00;97892.47;4121213;28;20240;-46
2022/10/01 07:27:30;;;;;;;2.50;1.50;;;;;;;10.11;100.00;97885.91;4122187;28;20271;-47
2022/10/01 07:29:32;;;;;;;1.42;1.35;;;;;;;10.10;100.00;97892.47;4117877;28;20210;-47
2022/10/01 07:31:33;;;;;;;1.27;1.27;;;;;;;10.10;100.00;97896.06;4120530;28;20202;-47
2022/10/01 07:33:39;;;;;;;1.13;1.10;;;;;;;10.07;100.00;97898.47;4117463;28;20651;-47
2022/10/01 07:35:41;;;;;;;1.33;1.23;;;;;;;10.11;100.00;97899.59;4118077;28;20206;-49
2022/10/01 07:37:42;;;;;;;1.70;1.10;;;;;;;10.11;100.00;97894.97;4119286;28;20217;-48
2022/10/01 07:39:44;;;;;;;1.20;1.10;;;;;;;10.07;100.00;97909.41;4116690;28;20261;-46
2022/10/01 07:41:46;;;;;;;2.83;1.20;;;;;;;10.10;100.00;97908.88;4117569;28;20285;-47
2022/10/01 07:43:48;;;;;;;8.80;7.88;;;;;;;10.13;100.00;97909.19;4117443;28;20221;-47
2022/10/01 07:45:53;;;;;;;1.48;1.38;;;;;;;10.16;100.00;97891.44;4116499;28;20755;-47
2022/10/01 07:47:58;;;;;;;2.35;1.38;;;;;;;10.12;100.00;97885.66;4122835;28;20676;-48
2022/10/01 07:50:00;;;;;;;1.60;1.15;;;;;;;10.15;100.00;97889.78;4123871;28;20198;-47
2022/10/01 07:52:06;;;;;;;1.55;1.42;;;;;;;10.19;100.00;97879.97;4119970;28;20212;-47
2022/10/01 07:54:13;;;;;;;1.23;1.13;;;;;;;10.14;100.00;97875.28;4117730;28;21063;-46
2022/10/01 07:56:15;;;;;;;2.45;1.50;;;;;;;10.13;100.00;97883.75;4117778;28;20292;-46
2022/10/01 07:58:17;;;;;;;1.40;1.30;;;;;;;10.14;100.00;97883.47;4118912;28;20220;-47
2022/10/01 08:00:20;;;;;;;1.40;1.30;;;;;;;10.14;100.00;97849.88;4106524;28;20242;-48
2022/10/01 08:02:22;;;;;;;1.00;1.00;;;;;;;10.15;100.00;97830.44;4119568;28;20205;-46
2022/10/01 08:06:47;;;;;;;1.23;1.20;;;;;;;10.15;100.00;97837.84;4119869;28;20214;-49
2022/10/01 08:08:49;;;;;;;1.10;1.10;;;;;;;10.19;100.00;97858.09;4118720;28;20214;-48
2022/10/01 08:10:51;;;;;;;0.95;0.95;;;;;;;10.18;100.00;97862.75;4120990;28;20214;-47
2022/10/01 08:13:06;;;;;;;1.38;1.27;;;;;;;10.22;100.00;97852.91;4117676;28;20229;-48
2022/10/01 08:15:12;;;;;;;1.10;1.10;;;;;;;10.25;100.00;97862.50;4116471;28;20707;-47
2022/10/01 08:17:14;;;;;;;1.30;1.20;;;;;;;10.27;100.00;97871.28;4116310;28;20217;-47
2022/10/01 08:19:16;;;;;;;1.38;1.27;;;;;;;10.30;100.00;97881.69;4116132;28;20233;-48
2022/10/01 08:21:17;;;;;;;1.20;1.10;;;;;;;10.26;100.00;97886.00;4120084;28;20352;-47
2022/10/01 08:23:20;;;;;;;1.13;1.02;;;;;;;10.31;100.00;97888.78;4118584;28;20269;-47
2022/10/01 08:25:22;;;;;;;1.25;1.00;;;;;;;10.33;100.00;97892.06;4120928;28;20249;-47
2022/10/01 08:27:24;;;;;;;1.25;0.90;;;;;;;10.40;100.00;97887.19;4116188;28;20654;-48
2022/10/01 08:29:26;;;;;;;1.23;1.00;;;;;;;10.47;100.00;97893.28;4120036;28;20301;-48
2022/10/01 08:31:27;;;;;;;1.13;1.10;;;;;;;10.41;100.00;97888.88;4120236;28;20238;-49
2022/10/01 08:33:29;;;;;;;1.08;1.08;;;;;;;10.46;100.00;97881.50;4117923;28;20639;-48
2022/10/01 08:35:31;;;;;;;1.23;1.10;;;;;;;10.45;100.00;97879.03;4111903;28;20218;-47
2022/10/01 08:37:33;;;;;;;1.25;1.08;;;;;;;10.49;100.00;97880.97;4119734;28;20594;-49
2022/10/01 08:39:36;;;;;;;0.98;0.95;;;;;;;10.55;100.00;97881.84;4116624;28;20668;-48
2022/10/01 08:41:48;;;;;;;2.85;1.42;;;;;;;10.53;100.00;97870.31;4116900;28;20653;-48
2022/10/01 08:43:50;;;;;;;1.63;1.52;;;;;;;10.54;100.00;97883.75;4118218;28;20596;-47
2022/10/01 08:45:54;;;;;;;0.98;0.95;;;;;;;10.52;100.00;97863.22;4103156;28;20209;-47
2022/10/01 08:48:04;;;;;;;1.20;1.20;;;;;;;10.56;100.00;97880.75;4126097;28;20210;-48
2022/10/01 08:50:27;;;;;;;1.08;1.00;;;;;;;10.59;100.00;97872.00;4119160;28;20209;-48
2022/10/01 08:52:32;;;;;;;0.90;0.90;;;;;;;10.54;100.00;97877.47;4118377;28;20298;-49
2022/10/01 08:54:45;;;;;;;1.80;1.13;;;;;;;10.52;100.00;97879.63;4101293;28;20673;-47
2022/10/01 08:56:47;;;;;;;2.00;1.90;;;;;;;10.55;100.00;97887.31;4115115;28;20604;-47
2022/10/01 08:58:54;;;;;;;1.02;0.90;;;;;;;10.64;100.00;97893.91;4128183;28;20214;-47
2022/10/01 09:00:55;;;;;;;0.93;0.93;;;;;;;10.61;100.00;97884.31;4117667;28;20681;-49
2022/10/01 09:02:59;;;;;;;1.27;1.20;;;;;;;10.64;100.00;97880.25;4114341;28;20242;-47
2022/10/01 09:05:17;;;;;;;0.90;0.90;;;;;;;10.63;100.00;97892.28;4110559;28;20225;-45
2022/10/01 09:07:28;;;;;;;2.25;1.58;;;;;;;10.65;100.00;97895.56;4125497;28;20269;-45
2022/10/01 09:09:56;;;;;;;2.15;1.10;;;;;;;10.68;100.00;97900.53;4121497;28;20195;-45
2022/10/01 09:12:10;;;;;;;1.25;1.15;;;;;;;10.68;100.00;97906.00;4120780;28;21451;-45
2022/10/01 09:14:26;;;;;;;1.08;1.00;;;;;;;10.69;100.00;97904.91;4123620;28;20222;-45
2022/10/01 09:16:27;;;;;;;0.73;0.73;;;;;;;10.73;100.00;97917.78;4128587;28;20216;-45
2022/10/01 09:18:57;;;;;;;1.65;1.55;;;;;;;10.74;100.00;97910.41;4129503;28;20667;-45
2022/10/01 09:20:59;;;;;;;1.55;1.33;;;;;;;10.74;100.00;97905.72;4128955;28;20206;-46
2022/10/01 09:23:04;;;;;;;1.40;1.30;;;;;;;10.76;100.00;97892.59;4123268;28;20317;-45
2022/10/01 09:25:13;;;;;;;1.20;1.20;;;;;;;10.77;100.00;97893.44;4126139;28;20248;-46
2022/10/01 09:27:17;;;;;;;1.25;1.15;;;;;;;10.77;100.00;97891.53;4122481;28;20206;-45
2022/10/01 09:29:30;;;;;;;1.20;1.10;;;;;;;10.76;100.00;97902.75;4128819;28;20220;-45
2022/10/01 09:31:43;;;;;;;1.60;1.50;;;;;;;10.79;100.00;97897.56;4122045;28;20309;-45
2022/10/01 09:33:55;;;;;;;1.35;1.10;;;;;;;10.76;100.00;97892.59;4120240;28;20248;-45
2022/10/01 09:36:33;;;;;;;2.42;2.22;;;;;;;10.78;100.00;97896.72;4126152;28;20213;-47
2022/10/01 09:38:39;;;;;;;1.83;1.48;;;;;;;10.83;100.00;97896.75;4117952;28;20210;-45
2022/10/01 09:40:59;;;;;;;1.27;1.08;;;;;;;10.85;100.00;97897.31;4122393;28;20300;-45
2022/10/01 09:43:02;;;;;;;1.10;0.90;;;;;;;10.85;100.00;97907.44;4134293;28;20658;-46
2022/10/01 09:45:05;;;;;;;1.05;0.95;;;;;;;10.82;100.00;97908.78;4124801;28;20602;-46
2022/10/01 09:47:18;;;;;;;2.30;1.58;;;;;;;10.85;100.00;97916.47;4121919;28;20213;-46
2022/10/01 09:49:38;;;;;;;2.13;1.50;;;;;;;10.88;100.00;97911.56;4127807;28;20214;-46
2022/10/01 09:51:50;;;;;;;1.27;1.17;;;;;;;10.84;100.00;97912.09;4127169;28;20652;-47
2022/10/01 09:54:08;;;;;;;2.92;2.72;;;;;;;10.84;100.00;97906.59;4120522;28;20234;-47